Poesville, Texas
Current Conditions -  °F | °C
As of 7:15 PM on Sunday 21 Dec 2014 (Local Time) from KCPT Reporting Station
Overcast Overcast  
Wind Chill: 10°   Ceiling: 2500
Heat Index: 10°   Visibility: 10mi
Dew Point:   Wind: 14mph
Humidity: 94%   Direction: 150°SSE
Pressure: 29.82"   Gusts: NA
Location:  32.0481°N, 97.6449°W
Report Text: KCPT 220115Z AUTO 15012KT 10SM OVC025 10/09 A2982 RMK AO2
Loading
Personal Weather Stations






























Interactive Weather Map New forecast layout! Learn more

10-Day Weather Forecast

Advertisements
Track Severe Weather on mobile